createdAt,value
2019-04-10T00:00:26.501Z,1.60
2019-04-10T00:02:57.726Z,2.30
2019-04-10T00:05:27.911Z,2.00
2019-04-10T00:07:58.133Z,1.60
2019-04-10T00:10:28.148Z,1.70
2019-04-10T00:12:58.326Z,2.00
2019-04-10T00:15:28.503Z,1.53
2019-04-10T00:17:59.761Z,2.00
2019-04-10T00:20:30.159Z,1.97
2019-04-10T00:23:00.324Z,1.93
2019-04-10T00:25:30.502Z,1.90
2019-04-10T00:28:01.183Z,2.03
2019-04-10T00:30:31.663Z,1.87
2019-04-10T00:33:02.598Z,2.20
2019-04-10T00:35:33.458Z,2.30
2019-04-10T00:38:03.657Z,2.07
2019-04-10T00:40:33.673Z,2.00
2019-04-10T00:43:03.798Z,2.60
2019-04-10T00:45:34.016Z,1.93
2019-04-10T00:48:04.142Z,2.00
2019-04-10T00:50:34.799Z,2.07
2019-04-10T00:53:05.195Z,1.90
2019-04-10T00:55:35.635Z,1.73
2019-04-10T00:58:05.807Z,2.23
2019-04-10T01:00:36.903Z,2.90
2019-04-10T01:03:07.579Z,1.50
2019-04-10T01:05:37.746Z,2.20
2019-04-10T01:08:08.700Z,2.13
2019-04-10T01:10:39.098Z,2.03
2019-04-10T01:13:10.161Z,1.60
2019-04-10T01:15:40.677Z,2.20
2019-04-10T01:18:10.930Z,2.57
2019-04-10T01:20:41.787Z,2.03
2019-04-10T01:23:12.251Z,2.67
2019-04-10T01:25:42.896Z,2.27
2019-04-10T01:28:14.054Z,2.70
2019-04-10T01:30:46.493Z,2.50
2019-04-10T01:33:16.826Z,1.87
2019-04-10T01:35:46.961Z,1.70
2019-04-10T01:38:17.562Z,2.00
2019-04-10T01:40:48.004Z,2.27
2019-04-10T01:43:19.938Z,2.00
2019-04-10T01:45:49.884Z,2.27
2019-04-10T01:48:20.104Z,2.37
2019-04-10T01:50:50.751Z,1.83
2019-04-10T01:53:21.772Z,2.40
2019-04-10T01:55:53.384Z,1.70
2019-04-10T01:58:25.210Z,2.00
2019-04-10T02:01:00.119Z,2.13
2019-04-10T02:03:30.236Z,3.00
2019-04-10T02:06:00.995Z,2.20
2019-04-10T02:08:31.944Z,2.00
2019-04-10T02:11:02.798Z,2.27
2019-04-10T02:13:33.795Z,1.87
2019-04-10T02:16:04.212Z,2.00
2019-04-10T02:18:35.204Z,2.30
2019-04-10T02:21:05.608Z,2.20
2019-04-10T02:23:36.467Z,1.93
2019-04-10T02:26:07.450Z,2.17
2019-04-10T02:28:37.781Z,2.10
2019-04-10T02:31:08.003Z,2.50
2019-04-10T02:33:38.746Z,2.40
2019-04-10T02:36:08.970Z,2.27
2019-04-10T02:38:56.124Z,2.87
2019-04-10T02:41:11.970Z,2.27
2019-04-10T02:43:43.035Z,2.50
2019-04-10T02:46:13.434Z,2.60
2019-04-10T02:48:43.548Z,2.17
2019-04-10T02:51:13.756Z,2.50
2019-04-10T02:53:43.919Z,2.30
2019-04-10T02:56:15.740Z,2.37
2019-04-10T02:58:47.060Z,2.27
2019-04-10T03:01:17.598Z,2.40
2019-04-10T03:03:48.053Z,2.70
2019-04-10T03:06:18.805Z,2.97
2019-04-10T03:09:04.887Z,2.03
2019-04-10T03:11:22.266Z,2.40
2019-04-10T03:13:53.495Z,1.80
2019-04-10T03:16:23.870Z,2.20
2019-04-10T03:18:54.894Z,2.20
2019-04-10T03:21:24.959Z,3.37
2019-04-10T03:23:55.958Z,2.43
2019-04-10T03:26:26.276Z,2.90
2019-04-10T03:28:57.624Z,2.97
2019-04-10T03:31:29.490Z,2.60
2019-04-10T03:34:02.924Z,3.27
2019-04-10T03:36:40.383Z,2.70
2019-04-10T03:39:10.853Z,3.10
2019-04-10T03:41:42.573Z,2.77
2019-04-10T03:44:12.586Z,3.27
2019-04-10T03:46:42.763Z,2.70
2019-04-10T03:49:13.692Z,2.63
2019-04-10T03:51:44.948Z,3.03
2019-04-10T03:54:15.419Z,7.80
2019-04-10T03:56:45.714Z,17.97
2019-04-10T03:59:17.500Z,24.30
2019-04-10T04:01:47.719Z,25.80
2019-04-10T04:04:17.840Z,22.73
2019-04-10T04:06:48.161Z,22.27
2019-04-10T04:09:19.520Z,17.67
2019-04-10T04:11:50.292Z,20.07
2019-04-10T04:14:21.980Z,16.43
2019-04-10T04:16:52.532Z,14.50
2019-04-10T04:19:22.570Z,13.33
2019-04-10T04:21:52.877Z,11.27
2019-04-10T04:24:25.503Z,10.27
2019-04-10T04:26:57.449Z,9.07
2019-04-10T04:29:27.548Z,8.33
2019-04-10T04:31:57.649Z,8.00
2019-04-10T04:34:27.668Z,6.97
2019-04-10T04:36:58.126Z,7.27
2019-04-10T04:39:29.716Z,5.93
2019-04-10T04:42:00.778Z,6.00
2019-04-10T04:44:31.215Z,5.23
2019-04-10T04:47:01.436Z,5.40
2019-04-10T04:49:31.555Z,6.07
2019-04-10T04:52:02.520Z,5.40
2019-04-10T04:54:32.975Z,4.30
2019-04-10T04:57:04.420Z,4.53
2019-04-10T04:59:34.626Z,4.93
2019-04-10T05:02:05.781Z,5.87
2019-04-10T05:04:37.512Z,4.60
2019-04-10T05:07:08.364Z,5.47
2019-04-10T05:09:39.600Z,5.07
2019-04-10T05:12:11.259Z,4.23
2019-04-10T05:14:41.880Z,4.10
2019-04-10T05:17:13.911Z,4.20
2019-04-10T05:19:45.175Z,4.63
2019-04-10T05:22:15.295Z,4.30
2019-04-10T05:24:46.672Z,4.10
2019-04-10T05:27:18.093Z,4.43
2019-04-10T05:29:48.421Z,3.47
2019-04-10T05:32:18.637Z,4.40
2019-04-10T05:34:48.657Z,4.17
2019-04-10T05:37:19.134Z,4.57
2019-04-10T05:39:51.984Z,4.10
2019-04-10T05:42:21.059Z,4.13
2019-04-10T05:44:52.205Z,3.90
2019-04-10T05:47:23.779Z,4.00
2019-04-10T05:49:53.873Z,3.30
2019-04-10T05:52:23.993Z,4.93
2019-04-10T05:54:54.347Z,6.97
2019-04-10T05:57:24.619Z,8.20
2019-04-10T05:59:54.763Z,6.60
2019-04-10T06:02:25.211Z,6.53
2019-04-10T06:04:55.983Z,6.37
2019-04-10T06:07:27.280Z,5.97
2019-04-10T06:10:01.921Z,5.77
2019-04-10T06:12:29.141Z,5.60
2019-04-10T06:14:59.369Z,4.97
2019-04-10T06:17:30.170Z,4.27
2019-04-10T06:20:00.813Z,4.20
2019-04-10T06:22:31.054Z,4.90
2019-04-10T06:25:01.181Z,3.93
2019-04-10T06:27:32.419Z,3.60
2019-04-10T06:30:03.662Z,4.13
2019-04-10T06:32:34.596Z,3.80
2019-04-10T06:35:06.399Z,4.00
2019-04-10T06:37:36.376Z,3.13
2019-04-10T06:40:15.325Z,3.60
2019-04-10T06:42:46.175Z,3.60
2019-04-10T06:45:11.362Z,4.27
2019-04-10T06:47:42.463Z,3.20
2019-04-10T06:50:12.919Z,3.10
2019-04-10T06:52:43.037Z,3.43
2019-04-10T06:55:13.308Z,3.20
2019-04-10T06:57:49.951Z,3.30
2019-04-10T07:00:18.496Z,3.57
2019-04-10T07:02:48.730Z,3.43
2019-04-10T07:05:19.796Z,2.50
2019-04-10T07:07:53.798Z,2.27
2019-04-10T07:10:28.559Z,3.50
2019-04-10T07:12:53.610Z,2.47
2019-04-10T07:15:24.080Z,2.60
2019-04-10T07:17:55.444Z,2.50
2019-04-10T07:20:26.146Z,2.50
2019-04-10T07:22:56.987Z,2.50
2019-04-10T07:25:28.312Z,2.77
2019-04-10T07:27:58.523Z,2.90
2019-04-10T07:30:29.850Z,3.17
2019-04-10T07:33:01.337Z,3.03
2019-04-10T07:35:34.004Z,2.10
2019-04-10T07:38:03.198Z,1.73
2019-04-10T07:40:36.338Z,1.77
2019-04-10T07:43:04.976Z,2.17
2019-04-10T07:45:35.526Z,2.67
2019-04-10T07:48:06.625Z,3.23
2019-04-10T07:50:37.189Z,2.13
2019-04-10T07:53:08.416Z,2.10
2019-04-10T07:55:39.735Z,2.30
2019-04-10T07:58:10.976Z,2.00
2019-04-10T08:00:42.846Z,2.40
2019-04-10T08:03:13.300Z,2.07
2019-04-10T08:05:44.117Z,2.50
2019-04-10T08:08:14.561Z,2.80
2019-04-10T08:10:45.126Z,2.67
2019-04-10T08:13:16.151Z,2.00
2019-04-10T08:15:46.557Z,2.20
2019-04-10T08:18:16.817Z,2.73
2019-04-10T08:20:47.105Z,2.60
2019-04-10T08:23:17.551Z,3.07
2019-04-10T08:25:47.759Z,2.37
2019-04-10T08:28:17.975Z,2.50
2019-04-10T08:30:48.338Z,2.23
2019-04-10T08:33:19.477Z,2.40
2019-04-10T08:35:49.776Z,2.50
2019-04-10T08:38:19.786Z,3.40
2019-04-10T08:40:49.900Z,2.60
2019-04-10T08:43:20.235Z,2.90
2019-04-10T08:45:52.194Z,2.67
2019-04-10T08:48:22.036Z,2.70
2019-04-10T08:50:52.443Z,2.70
2019-04-10T08:53:22.647Z,2.53
2019-04-10T08:55:52.770Z,2.50
2019-04-10T08:58:23.002Z,2.37
2019-04-10T09:00:54.222Z,2.50
2019-04-10T09:03:24.608Z,2.40
2019-04-10T09:05:55.275Z,2.63
2019-04-10T09:08:26.560Z,3.30
2019-04-10T09:10:57.063Z,2.90
2019-04-10T09:13:27.186Z,2.93
2019-04-10T09:15:58.380Z,2.80
2019-04-10T09:18:29.489Z,2.97
2019-04-10T09:20:59.795Z,2.87
2019-04-10T09:23:37.846Z,3.40
2019-04-10T09:26:01.826Z,3.20
2019-04-10T09:28:32.768Z,3.20
2019-04-10T09:31:02.937Z,3.23
2019-04-10T09:33:35.347Z,3.40
2019-04-10T09:36:06.142Z,2.90
2019-04-10T09:38:36.917Z,3.27
2019-04-10T09:41:07.807Z,3.30
2019-04-10T09:43:38.146Z,3.60
2019-04-10T09:46:09.763Z,5.47
2019-04-10T09:48:40.322Z,9.10
2019-04-10T09:51:11.664Z,6.23
2019-04-10T09:53:43.325Z,6.07
2019-04-10T09:56:13.644Z,4.50
2019-04-10T09:58:44.782Z,4.93
2019-04-10T10:01:18.009Z,5.67
2019-04-10T10:03:50.812Z,4.40
2019-04-10T10:06:26.872Z,3.97
2019-04-10T10:08:54.335Z,4.10
2019-04-10T10:11:24.501Z,4.60
2019-04-10T10:13:54.426Z,3.80
2019-04-10T10:16:25.383Z,4.80
2019-04-10T10:18:55.783Z,4.90
2019-04-10T10:21:28.341Z,5.47
2019-04-10T10:24:02.542Z,5.27
2019-04-10T10:26:32.972Z,4.80
2019-04-10T10:29:04.747Z,4.57
2019-04-10T10:31:36.021Z,4.03
2019-04-10T10:34:06.326Z,3.90
2019-04-10T10:36:41.903Z,4.03
2019-04-10T10:39:18.990Z,4.00
2019-04-10T10:41:49.588Z,3.30
2019-04-10T10:44:19.808Z,3.53
2019-04-10T10:46:49.926Z,3.90
2019-04-10T10:49:20.200Z,3.37
2019-04-10T10:51:51.073Z,3.67
2019-04-10T10:54:21.410Z,4.30
2019-04-10T10:56:52.883Z,3.67
2019-04-10T10:59:23.815Z,3.23
2019-04-10T11:01:53.953Z,3.20
2019-04-10T11:04:24.659Z,3.93
2019-04-10T11:06:59.997Z,3.57
2019-04-10T11:09:26.534Z,3.30
2019-04-10T11:11:57.391Z,3.50
2019-04-10T11:14:27.748Z,3.67
2019-04-10T11:16:57.911Z,2.63
2019-04-10T11:19:28.946Z,3.20
2019-04-10T11:21:59.693Z,2.57
2019-04-10T11:24:31.474Z,2.70
2019-04-10T11:27:02.786Z,3.77
2019-04-10T11:29:33.221Z,3.00
2019-04-10T11:32:04.223Z,3.70
2019-04-10T11:34:35.585Z,2.90
2019-04-10T11:39:42.766Z,4.10
2019-04-10T11:42:09.905Z,2.63
2019-04-10T11:44:42.509Z,2.93
2019-04-10T11:47:12.492Z,3.50
2019-04-10T11:49:43.402Z,3.50
2019-04-10T11:52:15.946Z,4.03
2019-04-10T11:54:46.928Z,3.20
2019-04-10T11:57:19.826Z,3.50
2019-04-10T11:59:49.565Z,3.97
2019-04-10T12:02:21.796Z,3.33
2019-04-10T12:04:56.021Z,3.53
2019-04-10T12:07:58.568Z,3.33
2019-04-10T12:12:26.455Z,3.90
2019-04-10T12:14:56.564Z,3.90
2019-04-10T12:17:27.626Z,4.40
2019-04-10T12:19:58.030Z,4.30
2019-04-10T12:22:28.256Z,3.77
2019-04-10T12:24:58.537Z,4.60
2019-04-10T12:27:29.399Z,3.60
2019-04-10T12:29:59.632Z,4.10
2019-04-10T12:32:30.423Z,4.00
2019-04-10T12:35:00.585Z,3.70
2019-04-10T12:37:30.817Z,4.53
2019-04-10T12:40:01.450Z,3.60
2019-04-10T12:42:32.331Z,4.03
2019-04-10T12:45:04.717Z,3.57
2019-04-10T12:47:35.080Z,3.87
2019-04-10T12:50:07.960Z,3.90
2019-04-10T12:52:38.786Z,3.60
2019-04-10T12:55:10.183Z,3.60
2019-04-10T12:57:41.323Z,4.20
2019-04-10T13:00:15.984Z,3.90
2019-04-10T13:02:47.022Z,3.37
2019-04-10T13:05:17.387Z,4.10
2019-04-10T13:07:47.694Z,4.07
2019-04-10T13:10:18.345Z,4.33
2019-04-10T13:12:49.287Z,4.53
2019-04-10T13:15:19.598Z,4.30
2019-04-10T13:17:49.818Z,4.40
2019-04-10T13:20:20.038Z,4.07
2019-04-10T13:22:50.675Z,2.90
2019-04-10T13:25:21.949Z,3.50
2019-04-10T13:27:52.774Z,4.23
2019-04-10T13:30:23.185Z,4.20
2019-04-10T13:32:53.302Z,4.30
2019-04-10T13:35:24.143Z,4.70
2019-04-10T13:37:54.838Z,3.80
2019-04-10T13:40:25.758Z,4.77
2019-04-10T13:42:56.238Z,4.47
2019-04-10T13:45:27.093Z,5.00
2019-04-10T13:47:57.392Z,4.00
2019-04-10T13:50:27.614Z,4.07
2019-04-10T13:52:57.839Z,4.13
2019-04-10T13:55:28.441Z,4.03
2019-04-10T13:57:59.955Z,4.37
2019-04-10T14:00:41.194Z,3.80
2019-04-10T14:03:12.236Z,5.30
2019-04-10T14:05:43.278Z,5.13
2019-04-10T14:08:14.453Z,4.97
2019-04-10T14:10:44.852Z,5.30
2019-04-10T14:13:15.726Z,5.47
2019-04-10T14:15:46.352Z,6.10
2019-04-10T14:18:16.949Z,6.57
2019-04-10T14:20:47.775Z,6.00
2019-04-10T14:23:20.041Z,7.63
2019-04-10T14:26:02.183Z,8.20
2019-04-10T14:28:34.013Z,8.17
2019-04-10T14:31:11.710Z,7.07
2019-04-10T14:33:42.154Z,8.23
2019-04-10T14:36:12.361Z,8.00
2019-04-10T14:38:43.289Z,8.87
2019-04-10T14:41:13.827Z,9.17
2019-04-10T14:43:45.365Z,9.13
2019-04-10T14:46:17.311Z,7.40
2019-04-10T14:48:47.154Z,7.17
2019-04-10T14:51:17.375Z,7.47
2019-04-10T14:53:47.494Z,8.20
2019-04-10T14:56:17.826Z,6.67
2019-04-10T14:58:48.242Z,7.40
2019-04-10T15:01:18.363Z,6.70
2019-04-10T15:03:48.809Z,6.50
2019-04-10T15:06:20.506Z,6.40
2019-04-10T15:08:50.773Z,6.00
2019-04-10T15:11:20.889Z,5.60
2019-04-10T15:13:51.112Z,5.40
2019-04-10T15:16:21.330Z,5.40
2019-04-10T15:18:52.017Z,5.00
2019-04-10T15:21:22.861Z,4.80
2019-04-10T15:23:53.265Z,4.23
2019-04-10T15:26:23.982Z,5.43
2019-04-10T15:28:54.155Z,4.37
2019-04-10T15:31:26.379Z,4.23
2019-04-10T15:33:56.025Z,4.23
2019-04-10T15:36:26.586Z,4.50
2019-04-10T15:38:56.638Z,4.33
2019-04-10T15:41:27.387Z,4.40
2019-04-10T15:43:57.661Z,4.60
2019-04-10T15:46:28.824Z,4.10
2019-04-10T15:48:59.024Z,7.07
2019-04-10T15:51:30.062Z,21.43
2019-04-10T15:54:01.231Z,33.80
2019-04-10T15:56:31.532Z,28.60
2019-04-10T15:59:01.807Z,28.13
2019-04-10T16:01:32.979Z,26.73
2019-04-10T16:04:03.327Z,21.90
2019-04-10T16:06:33.546Z,14.50
2019-04-10T16:09:05.410Z,12.20
2019-04-10T16:11:50.057Z,10.97
2019-04-10T16:14:24.255Z,8.67
2019-04-10T16:17:08.894Z,7.60
2019-04-10T16:19:56.572Z,7.13
2019-04-10T16:22:28.328Z,5.07
2019-04-10T16:25:01.063Z,5.20
2019-04-10T16:27:31.339Z,4.83
2019-04-10T16:30:03.280Z,5.33
2019-04-10T16:32:33.214Z,5.23
2019-04-10T16:35:03.636Z,4.90
2019-04-10T16:37:33.757Z,6.60
2019-04-10T16:40:08.278Z,7.20
2019-04-10T16:42:36.981Z,6.40
2019-04-10T16:45:08.060Z,6.80
2019-04-10T16:47:38.624Z,6.03
2019-04-10T16:50:11.139Z,7.83
2019-04-10T16:52:41.332Z,8.77
2019-04-10T16:55:11.656Z,8.67
2019-04-10T16:57:43.013Z,9.83
2019-04-10T17:00:15.615Z,10.30
2019-04-10T17:02:46.510Z,8.47
2019-04-10T17:05:16.741Z,9.50
2019-04-10T17:07:47.470Z,8.87
2019-04-10T17:10:22.992Z,9.50
2019-04-10T17:12:51.853Z,8.17
2019-04-10T17:15:22.447Z,8.33
2019-04-10T17:17:52.831Z,10.10
2019-04-10T17:20:24.464Z,8.57
2019-04-10T17:22:56.215Z,9.43
2019-04-10T17:25:26.618Z,9.20
2019-04-10T17:27:56.622Z,8.80
2019-04-10T17:30:27.477Z,7.27
2019-04-10T17:32:57.883Z,8.07
2019-04-10T17:35:28.113Z,7.20
2019-04-10T17:37:58.429Z,7.47
2019-04-10T17:40:36.973Z,6.90
2019-04-10T17:43:01.007Z,7.70
2019-04-10T17:45:32.703Z,5.20
2019-04-10T17:48:03.318Z,15.93
2019-04-10T17:50:33.633Z,18.90
2019-04-10T17:53:05.087Z,19.83
2019-04-10T17:55:37.718Z,15.53
2019-04-10T17:58:09.465Z,12.70
2019-04-10T18:00:41.486Z,10.53
2019-04-10T18:03:13.029Z,8.73
2019-04-10T18:05:43.154Z,6.90
2019-04-10T18:08:13.505Z,5.60
2019-04-10T18:10:49.551Z,5.17
2019-04-10T18:13:15.971Z,4.63
2019-04-10T18:15:46.343Z,4.60
2019-04-10T18:18:17.663Z,4.50
2019-04-10T18:20:49.516Z,4.33
2019-04-10T18:23:20.034Z,4.33
2019-04-10T18:25:50.152Z,5.50
2019-04-10T18:28:21.351Z,4.13
2019-04-10T18:30:52.274Z,3.93
2019-04-10T18:33:22.658Z,4.67
2019-04-10T18:35:53.212Z,3.90
2019-04-10T18:38:23.721Z,4.50
2019-04-10T18:41:00.627Z,4.43
2019-04-10T18:43:26.952Z,4.33
2019-04-10T18:46:06.227Z,4.57
2019-04-10T18:48:28.905Z,4.57
2019-04-10T18:50:59.360Z,4.83
2019-04-10T18:53:29.861Z,4.60
2019-04-10T18:56:00.785Z,4.60
2019-04-10T18:58:33.648Z,4.30
2019-04-10T19:01:10.400Z,4.60
2019-04-10T19:03:49.406Z,3.80
2019-04-10T19:06:16.356Z,3.90
2019-04-10T19:09:00.085Z,4.00
2019-04-10T19:11:22.882Z,3.83
2019-04-10T19:13:50.899Z,3.60
2019-04-10T19:16:23.429Z,3.97
2019-04-10T19:18:55.252Z,4.17
2019-04-10T19:21:25.337Z,4.13
2019-04-10T19:23:55.665Z,4.20
2019-04-10T19:26:27.310Z,4.50
2019-04-10T19:28:57.741Z,4.20
2019-04-10T19:31:29.785Z,4.10
2019-04-10T19:34:01.020Z,4.47
2019-04-10T19:36:32.825Z,4.20
2019-04-10T19:39:03.135Z,4.43
2019-04-10T19:41:36.711Z,3.90
2019-04-10T19:44:05.012Z,3.70
2019-04-10T19:46:35.461Z,4.30
2019-04-10T19:49:06.074Z,3.40
2019-04-10T19:51:36.912Z,4.03
2019-04-10T19:54:07.876Z,3.33
2019-04-10T19:56:38.679Z,3.90
2019-04-10T19:59:08.801Z,3.43
2019-04-10T20:01:39.102Z,4.03
2019-04-10T20:04:10.377Z,3.20
2019-04-10T20:06:40.743Z,3.77
2019-04-10T20:09:10.932Z,3.10
2019-04-10T20:11:45.299Z,3.47
2019-04-10T20:14:13.968Z,3.43
2019-04-10T20:16:44.343Z,3.43
2019-04-10T20:19:15.183Z,3.50
2019-04-10T20:21:45.624Z,3.63
2019-04-10T20:24:16.648Z,3.40
2019-04-10T20:26:47.538Z,3.80
2019-04-10T20:29:17.811Z,2.90
2019-04-10T20:31:48.543Z,3.60
2019-04-10T20:34:19.154Z,3.90
2019-04-10T20:36:49.394Z,3.63
2019-04-10T20:39:19.613Z,3.57
2019-04-10T20:41:53.717Z,3.63
2019-04-10T20:44:22.692Z,3.50
2019-04-10T20:46:52.945Z,3.60
2019-04-10T20:49:23.163Z,3.43
2019-04-10T20:51:53.644Z,3.50
2019-04-10T20:54:24.505Z,3.57
2019-04-10T20:56:54.912Z,3.20
2019-04-10T20:59:26.453Z,3.20
2019-04-10T21:01:57.790Z,3.57
2019-04-10T21:04:28.075Z,3.57
2019-04-10T21:06:58.597Z,2.80
2019-04-10T21:09:29.767Z,4.70
2019-04-10T21:12:06.735Z,3.70
2019-04-10T21:14:31.852Z,3.27
2019-04-10T21:17:02.413Z,3.60
2019-04-10T21:19:33.462Z,3.07
2019-04-10T21:22:03.819Z,3.03
2019-04-10T21:24:34.260Z,3.30
2019-04-10T21:27:05.563Z,3.67
2019-04-10T21:29:46.572Z,3.70
2019-04-10T21:32:36.559Z,4.40
2019-04-10T21:35:09.531Z,3.60
2019-04-10T21:37:40.290Z,3.20
2019-04-10T21:40:10.500Z,3.33
2019-04-10T21:42:41.273Z,4.07
2019-04-10T21:45:11.670Z,3.83
2019-04-10T21:47:41.878Z,3.97
2019-04-10T21:50:13.077Z,4.47
2019-04-10T21:52:43.552Z,4.77
2019-04-10T21:55:14.934Z,4.23
2019-04-10T21:57:45.343Z,5.60
2019-04-10T22:00:17.087Z,4.60
2019-04-10T22:02:48.443Z,5.47
2019-04-10T22:05:19.744Z,3.73
2019-04-10T22:07:54.581Z,3.30
2019-04-10T22:10:34.970Z,3.63
2019-04-10T22:13:05.870Z,3.57
2019-04-10T22:15:37.974Z,4.13
2019-04-10T22:18:09.251Z,3.90
2019-04-10T22:20:39.599Z,3.30
2019-04-10T22:23:09.898Z,3.13
2019-04-10T22:25:40.190Z,3.47
2019-04-10T22:28:10.529Z,3.10
2019-04-10T22:30:41.573Z,3.60
2019-04-10T22:33:11.879Z,3.20
2019-04-10T22:35:42.077Z,3.50
2019-04-10T22:38:13.136Z,3.47
2019-04-10T22:40:44.174Z,3.60
2019-04-10T22:43:15.605Z,3.27
2019-04-10T22:45:46.605Z,3.20
2019-04-10T22:48:16.910Z,3.60
2019-04-10T22:50:47.219Z,3.07
2019-04-10T22:53:17.541Z,3.20
2019-04-10T22:55:48.465Z,3.00
2019-04-10T22:58:19.136Z,2.80
2019-04-10T23:00:50.843Z,2.90
2019-04-10T23:03:22.289Z,2.63
2019-04-10T23:05:53.099Z,2.70
2019-04-10T23:08:23.274Z,2.97
2019-04-10T23:10:53.293Z,4.20
2019-04-10T23:13:23.752Z,2.97
2019-04-10T23:15:54.145Z,3.27
2019-04-10T23:18:25.483Z,3.60
2019-04-10T23:20:57.056Z,2.77
2019-04-10T23:23:27.383Z,2.87
2019-04-10T23:25:58.477Z,3.20
2019-04-10T23:28:28.735Z,3.40
2019-04-10T23:30:59.400Z,3.33
2019-04-10T23:33:30.186Z,2.97
2019-04-10T23:36:00.423Z,3.00
2019-04-10T23:38:31.185Z,3.30
2019-04-10T23:41:01.386Z,3.13
2019-04-10T23:43:31.525Z,2.70
2019-04-10T23:46:02.156Z,3.43
2019-04-10T23:48:32.912Z,2.40
2019-04-10T23:51:03.187Z,3.00
2019-04-10T23:53:33.305Z,3.20
2019-04-10T23:56:04.252Z,3.00
2019-04-10T23:58:34.569Z,2.63
